createdAt,value
2022-08-23T00:00:13.281Z,15.00
2022-08-23T00:01:20.326Z,15.00
2022-08-23T00:02:24.007Z,15.00
2022-08-23T00:03:25.856Z,14.90
2022-08-23T00:04:35.028Z,15.00
2022-08-23T00:05:37.071Z,14.90
2022-08-23T00:06:40.170Z,15.00
2022-08-23T00:07:43.622Z,15.00
2022-08-23T00:08:48.639Z,15.00
2022-08-23T00:09:50.611Z,15.00
2022-08-23T00:10:52.417Z,15.00
2022-08-23T00:12:15.151Z,15.00
2022-08-23T00:13:17.288Z,15.00
2022-08-23T00:14:21.912Z,15.00
2022-08-23T00:15:23.664Z,15.00
2022-08-23T00:16:25.667Z,15.00
2022-08-23T00:17:33.429Z,15.00
2022-08-23T00:18:36.326Z,15.00
2022-08-23T00:19:39.383Z,15.00
2022-08-23T00:20:41.192Z,14.90
2022-08-23T00:21:43.669Z,14.90
2022-08-23T00:22:45.590Z,14.90
2022-08-23T00:23:47.297Z,14.90
2022-08-23T00:24:49.588Z,14.80
2022-08-23T00:25:51.287Z,14.80
2022-08-23T00:26:56.072Z,14.80
2022-08-23T00:27:58.106Z,14.70
2022-08-23T00:28:59.762Z,14.70
2022-08-23T00:30:01.912Z,14.70
2022-08-23T00:31:04.310Z,14.70
2022-08-23T00:32:11.647Z,14.70
2022-08-23T00:33:13.363Z,14.70
2022-08-23T00:34:15.435Z,14.60
2022-08-23T00:35:27.162Z,14.60
2022-08-23T00:36:29.129Z,14.60
2022-08-23T00:37:32.432Z,14.60
2022-08-23T00:38:35.248Z,14.60
2022-08-23T00:39:37.737Z,14.60
2022-08-23T00:40:39.516Z,14.60
2022-08-23T00:41:41.321Z,14.60
2022-08-23T00:43:28.493Z,14.60
2022-08-23T00:44:52.513Z,14.60
2022-08-23T00:46:32.262Z,14.60
2022-08-23T00:47:39.968Z,14.60
2022-08-23T00:48:42.309Z,14.50
2022-08-23T00:49:47.397Z,14.50
2022-08-23T00:50:52.086Z,14.50
2022-08-23T00:51:59.889Z,14.50
2022-08-23T00:53:16.457Z,14.50
2022-08-23T00:54:19.809Z,14.50
2022-08-23T00:55:21.941Z,14.50
2022-08-23T00:56:26.898Z,14.40
2022-08-23T00:57:33.810Z,14.40
2022-08-23T00:58:36.095Z,14.40
2022-08-23T00:59:38.243Z,14.40
2022-08-23T01:00:40.487Z,14.30
2022-08-23T01:01:44.035Z,14.30
2022-08-23T01:02:48.194Z,14.30
2022-08-23T01:04:04.416Z,14.30
2022-08-23T01:05:07.925Z,14.30
2022-08-23T01:06:23.571Z,14.20
2022-08-23T01:07:33.715Z,14.20
2022-08-23T01:08:37.035Z,14.20
2022-08-23T01:09:42.447Z,14.20
2022-08-23T01:10:49.786Z,14.20
2022-08-23T01:12:08.750Z,14.20
2022-08-23T01:13:32.723Z,14.20
2022-08-23T01:14:38.287Z,14.20
2022-08-23T01:16:03.815Z,14.20
2022-08-23T01:17:24.154Z,14.20
2022-08-23T01:18:28.311Z,14.20
2022-08-23T01:19:38.602Z,14.20
2022-08-23T01:20:57.925Z,14.20
2022-08-23T01:22:16.013Z,14.20
2022-08-23T01:23:36.461Z,14.20
2022-08-23T01:25:07.111Z,14.20
2022-08-23T01:26:01.169Z,14.20
2022-08-23T01:27:03.789Z,14.10
2022-08-23T01:28:05.508Z,14.20
2022-08-23T01:29:07.980Z,14.20
2022-08-23T01:30:12.627Z,14.20
2022-08-23T01:31:16.232Z,14.20
2022-08-23T01:32:18.031Z,14.20
2022-08-23T01:33:20.059Z,14.20
2022-08-23T01:34:26.058Z,14.20
2022-08-23T01:35:41.199Z,14.10
2022-08-23T01:36:43.992Z,14.10
2022-08-23T01:37:46.218Z,14.10
2022-08-23T01:38:48.884Z,14.10
2022-08-23T01:39:51.097Z,14.10
2022-08-23T01:40:52.929Z,14.10
2022-08-23T01:41:55.131Z,14.10
2022-08-23T01:42:56.914Z,14.10
2022-08-23T01:43:58.658Z,14.00
2022-08-23T01:45:01.253Z,14.00
2022-08-23T01:46:17.976Z,14.00
2022-08-23T01:47:19.649Z,14.00
2022-08-23T01:48:22.158Z,14.00
2022-08-23T01:49:23.866Z,14.00
2022-08-23T01:50:26.324Z,14.00
2022-08-23T01:51:28.171Z,14.00
2022-08-23T01:52:30.063Z,14.00
2022-08-23T01:53:32.006Z,14.00
2022-08-23T01:54:33.754Z,14.00
2022-08-23T01:55:36.876Z,14.00
2022-08-23T01:56:39.630Z,13.90
2022-08-23T01:57:42.961Z,14.00
2022-08-23T01:58:50.707Z,14.00
2022-08-23T01:59:52.423Z,14.00
2022-08-23T02:00:54.189Z,13.90
2022-08-23T02:01:56.271Z,13.90
2022-08-23T02:02:59.312Z,13.90
2022-08-23T02:04:05.147Z,13.90
2022-08-23T02:05:08.357Z,13.90
2022-08-23T02:06:10.136Z,13.80
2022-08-23T02:07:11.813Z,13.80
2022-08-23T02:08:32.616Z,13.70
2022-08-23T02:09:34.330Z,13.70
2022-08-23T02:10:36.217Z,13.70
2022-08-23T02:11:41.690Z,13.70
2022-08-23T02:12:43.674Z,13.70
2022-08-23T02:13:45.902Z,13.60
2022-08-23T02:14:48.244Z,13.60
2022-08-23T02:15:51.441Z,13.60
2022-08-23T02:17:03.287Z,13.70
2022-08-23T02:18:06.463Z,13.60
2022-08-23T02:19:10.830Z,13.60
2022-08-23T02:20:14.122Z,13.60
2022-08-23T02:21:16.309Z,13.60
2022-08-23T02:22:18.397Z,13.60
2022-08-23T02:23:21.135Z,13.60
2022-08-23T02:24:25.075Z,13.60
2022-08-23T02:25:26.795Z,13.60
2022-08-23T02:26:30.908Z,13.60
2022-08-23T02:27:33.225Z,13.50
2022-08-23T02:28:34.959Z,13.50
2022-08-23T02:29:38.385Z,13.50
2022-08-23T02:30:41.061Z,13.50
2022-08-23T02:31:46.578Z,13.50
2022-08-23T02:32:48.314Z,13.50
2022-08-23T02:33:50.198Z,13.40
2022-08-23T02:35:04.912Z,13.40
2022-08-23T02:36:07.915Z,13.40
2022-08-23T02:37:12.390Z,13.40
2022-08-23T02:38:14.194Z,13.40
2022-08-23T02:39:17.804Z,13.30
2022-08-23T02:40:20.369Z,13.30
2022-08-23T02:41:22.842Z,13.30
2022-08-23T02:42:24.520Z,13.30
2022-08-23T02:43:26.168Z,13.30
2022-08-23T02:44:27.954Z,13.30
2022-08-23T02:45:30.940Z,13.30
2022-08-23T02:46:32.800Z,13.20
2022-08-23T02:47:36.838Z,13.30
2022-08-23T02:48:39.650Z,13.20
2022-08-23T02:49:41.579Z,13.30
2022-08-23T02:50:43.323Z,13.20
2022-08-23T02:51:45.801Z,13.20
2022-08-23T02:52:47.901Z,13.20
2022-08-23T02:53:49.953Z,13.30
2022-08-23T02:54:51.650Z,13.20
2022-08-23T02:55:58.826Z,13.30
2022-08-23T02:57:00.720Z,13.30
2022-08-23T02:58:02.487Z,13.30
2022-08-23T02:59:05.706Z,13.30
2022-08-23T03:00:10.294Z,13.30
2022-08-23T03:01:25.178Z,13.20
2022-08-23T03:02:26.924Z,13.20
2022-08-23T03:03:29.406Z,13.20
2022-08-23T03:04:33.543Z,13.20
2022-08-23T03:05:35.379Z,13.20
2022-08-23T03:06:38.307Z,13.20
2022-08-23T03:07:40.565Z,13.20
2022-08-23T03:08:43.307Z,13.20
2022-08-23T03:09:46.728Z,13.20
2022-08-23T03:10:50.581Z,13.20
2022-08-23T03:11:52.313Z,13.20
2022-08-23T03:12:54.019Z,13.20
2022-08-23T03:13:56.405Z,13.20
2022-08-23T03:14:58.418Z,13.20
2022-08-23T03:16:01.545Z,13.20
2022-08-23T03:17:03.963Z,13.20
2022-08-23T03:18:06.023Z,13.10
2022-08-23T03:19:08.510Z,13.10
2022-08-23T03:20:10.863Z,13.10
2022-08-23T03:21:13.153Z,13.10
2022-08-23T03:22:15.062Z,13.10
2022-08-23T03:23:17.098Z,13.20
2022-08-23T03:24:18.844Z,13.20
2022-08-23T03:25:20.527Z,13.10
2022-08-23T03:26:22.223Z,13.10
2022-08-23T03:27:23.995Z,13.10
2022-08-23T03:28:26.267Z,13.10
2022-08-23T03:29:28.641Z,13.10
2022-08-23T03:30:30.590Z,13.10
2022-08-23T03:31:32.387Z,13.10
2022-08-23T03:32:34.081Z,13.10
2022-08-23T03:33:35.969Z,13.10
2022-08-23T03:34:37.667Z,13.10
2022-08-23T03:35:39.338Z,13.00
2022-08-23T03:36:41.049Z,13.00
2022-08-23T03:37:42.728Z,13.10
2022-08-23T03:38:45.229Z,13.00
2022-08-23T03:39:46.904Z,13.00
2022-08-23T03:40:52.399Z,13.00
2022-08-23T03:41:54.159Z,13.10
2022-08-23T03:42:55.866Z,13.00
2022-08-23T03:43:57.821Z,13.00
2022-08-23T03:45:02.302Z,13.10
2022-08-23T03:46:06.034Z,13.00
2022-08-23T03:47:07.847Z,13.00
2022-08-23T03:48:09.572Z,13.00
2022-08-23T03:49:11.301Z,13.00
2022-08-23T03:50:13.169Z,13.00
2022-08-23T03:51:15.107Z,13.10
2022-08-23T03:52:16.800Z,13.00
2022-08-23T03:53:18.602Z,13.10
2022-08-23T03:54:20.705Z,13.00
2022-08-23T03:55:24.367Z,13.00
2022-08-23T03:56:33.719Z,13.00
2022-08-23T03:57:35.479Z,13.00
2022-08-23T03:58:37.159Z,13.00
2022-08-23T03:59:40.821Z,12.90
2022-08-23T04:00:42.644Z,13.00
2022-08-23T04:01:44.426Z,13.00
2022-08-23T04:02:46.285Z,12.90
2022-08-23T04:03:48.499Z,13.00
2022-08-23T04:04:50.224Z,12.90
2022-08-23T04:05:52.499Z,12.90
2022-08-23T04:06:54.242Z,12.90
2022-08-23T04:07:56.129Z,12.90
2022-08-23T04:08:57.874Z,13.00
2022-08-23T04:09:59.604Z,13.00
2022-08-23T04:11:27.558Z,13.00
2022-08-23T04:12:29.810Z,12.90
2022-08-23T04:13:31.651Z,12.90
2022-08-23T04:14:33.374Z,12.90
2022-08-23T04:15:35.418Z,12.90
2022-08-23T04:16:40.370Z,12.90
2022-08-23T04:17:42.883Z,12.90
2022-08-23T04:18:45.595Z,12.80
2022-08-23T04:19:48.089Z,12.80
2022-08-23T04:20:51.006Z,12.80
2022-08-23T04:21:52.995Z,12.80
2022-08-23T04:22:56.119Z,12.80
2022-08-23T04:23:58.243Z,12.70
2022-08-23T04:25:00.549Z,12.70
2022-08-23T04:26:02.351Z,12.70
2022-08-23T04:27:04.799Z,12.70
2022-08-23T04:28:06.592Z,12.70
2022-08-23T04:29:09.023Z,12.70
2022-08-23T04:30:12.482Z,12.70
2022-08-23T04:31:17.062Z,12.70
2022-08-23T04:32:28.444Z,12.60
2022-08-23T04:33:32.788Z,12.60
2022-08-23T04:34:35.747Z,12.60
2022-08-23T04:35:37.470Z,12.70
2022-08-23T04:36:50.057Z,12.70
2022-08-23T04:37:53.897Z,12.70
2022-08-23T04:38:55.573Z,12.60
2022-08-23T04:40:15.929Z,12.70
2022-08-23T04:41:37.609Z,12.70
2022-08-23T04:42:40.968Z,12.70
2022-08-23T04:43:44.060Z,12.70
2022-08-23T04:44:46.041Z,12.70
2022-08-23T04:45:48.827Z,12.70
2022-08-23T04:46:50.617Z,12.70
2022-08-23T04:47:52.461Z,12.70
2022-08-23T04:48:54.368Z,12.70
2022-08-23T04:49:56.027Z,12.70
2022-08-23T04:50:57.825Z,12.80
2022-08-23T04:51:59.525Z,12.80
2022-08-23T04:53:01.284Z,12.80
2022-08-23T04:54:03.853Z,12.80
2022-08-23T04:55:06.104Z,12.80
2022-08-23T04:56:08.862Z,12.80
2022-08-23T04:57:10.674Z,12.80
2022-08-23T04:58:12.441Z,12.80
2022-08-23T04:59:14.284Z,12.90
2022-08-23T05:00:17.175Z,12.90
2022-08-23T05:01:18.920Z,12.90
2022-08-23T05:02:20.843Z,12.90
2022-08-23T05:03:22.539Z,12.90
2022-08-23T05:04:24.187Z,12.90
2022-08-23T05:05:27.744Z,12.90
2022-08-23T05:06:31.220Z,12.90
2022-08-23T05:07:42.363Z,12.90
2022-08-23T05:08:44.769Z,12.90
2022-08-23T05:09:46.552Z,13.00
2022-08-23T05:10:48.239Z,13.00
2022-08-23T05:11:49.916Z,13.00
2022-08-23T05:12:51.695Z,13.00
2022-08-23T05:13:53.384Z,13.10
2022-08-23T05:14:55.084Z,13.10
2022-08-23T05:15:57.268Z,13.10
2022-08-23T05:16:59.438Z,13.10
2022-08-23T05:18:01.450Z,13.20
2022-08-23T05:19:03.370Z,13.20
2022-08-23T05:20:07.794Z,13.20
2022-08-23T05:21:14.654Z,13.20
2022-08-23T05:22:16.360Z,13.30
2022-08-23T05:23:18.194Z,13.30
2022-08-23T05:24:20.194Z,13.30
2022-08-23T05:25:22.613Z,13.40
2022-08-23T05:26:24.322Z,13.40
2022-08-23T05:27:26.088Z,13.50
2022-08-23T05:28:32.929Z,13.50
2022-08-23T05:29:34.627Z,13.50
2022-08-23T05:30:36.314Z,13.50
2022-08-23T05:31:38.154Z,13.60
2022-08-23T05:32:40.211Z,13.60
2022-08-23T05:33:42.922Z,13.60
2022-08-23T05:34:44.610Z,13.70
2022-08-23T05:35:46.278Z,13.70
2022-08-23T05:36:56.002Z,13.70
2022-08-23T05:38:00.472Z,13.80
2022-08-23T05:39:02.299Z,13.80
2022-08-23T05:40:05.086Z,13.90
2022-08-23T05:41:07.167Z,13.90
2022-08-23T05:42:16.740Z,14.00
2022-08-23T05:43:19.569Z,14.00
2022-08-23T05:44:21.541Z,14.10
2022-08-23T05:45:23.627Z,14.10
2022-08-23T05:46:28.456Z,14.20
2022-08-23T05:47:33.884Z,14.20
2022-08-23T05:48:36.095Z,14.20
2022-08-23T05:49:38.631Z,14.30
2022-08-23T05:50:40.391Z,14.30
2022-08-23T05:51:42.414Z,14.40
2022-08-23T05:52:50.816Z,14.40
2022-08-23T05:53:55.441Z,14.50
2022-08-23T05:54:57.118Z,14.60
2022-08-23T05:56:09.381Z,14.60
2022-08-23T05:57:11.414Z,14.60
2022-08-23T05:58:13.149Z,14.70
2022-08-23T05:59:17.148Z,14.70
2022-08-23T06:00:18.930Z,14.80
2022-08-23T06:01:21.582Z,14.80
2022-08-23T06:02:23.320Z,14.90
2022-08-23T06:03:25.021Z,14.90
2022-08-23T06:04:26.707Z,15.00
2022-08-23T06:05:28.594Z,15.10
2022-08-23T06:06:37.393Z,15.20
2022-08-23T06:07:39.883Z,15.20
2022-08-23T06:08:43.124Z,15.30
2022-08-23T06:09:44.887Z,15.30
2022-08-23T06:10:46.575Z,15.40
2022-08-23T06:11:48.713Z,15.40
2022-08-23T06:12:50.409Z,15.50
2022-08-23T06:13:58.209Z,15.60
2022-08-23T06:14:59.957Z,15.60
2022-08-23T06:16:14.630Z,15.70
2022-08-23T06:17:17.155Z,15.80
2022-08-23T06:18:19.161Z,15.90
2022-08-23T06:19:21.002Z,15.90
2022-08-23T06:20:22.736Z,16.00
2022-08-23T06:21:26.079Z,16.10
2022-08-23T06:22:29.211Z,16.20
2022-08-23T06:23:32.241Z,16.20
2022-08-23T06:24:34.063Z,16.30
2022-08-23T06:25:39.434Z,16.40
2022-08-23T06:26:45.135Z,16.40
2022-08-23T06:27:47.155Z,16.50
2022-08-23T06:28:51.578Z,16.60
2022-08-23T06:29:53.402Z,16.60
2022-08-23T06:30:56.559Z,16.70
2022-08-23T06:31:58.392Z,16.80
2022-08-23T06:33:00.166Z,16.80
2022-08-23T06:34:01.871Z,16.90
2022-08-23T06:35:36.824Z,16.90
2022-08-23T06:36:25.689Z,17.00
2022-08-23T06:37:27.758Z,17.00
2022-08-23T06:38:29.470Z,17.10
2022-08-23T06:39:35.571Z,17.10
2022-08-23T06:40:39.196Z,17.20
2022-08-23T06:41:41.477Z,17.30
2022-08-23T06:42:44.767Z,17.30
2022-08-23T06:43:48.789Z,17.40
2022-08-23T06:44:51.264Z,17.40
2022-08-23T06:45:54.930Z,17.50
2022-08-23T06:47:00.319Z,17.50
2022-08-23T06:48:02.463Z,17.60
2022-08-23T06:49:06.582Z,17.60
2022-08-23T06:50:09.340Z,17.70
2022-08-23T06:51:30.650Z,17.70
2022-08-23T06:52:32.903Z,17.80
2022-08-23T06:53:34.798Z,17.80
2022-08-23T06:54:37.644Z,17.90
2022-08-23T06:55:39.452Z,17.90
2022-08-23T06:56:43.245Z,18.00
2022-08-23T06:57:45.595Z,18.00
2022-08-23T06:58:47.283Z,18.10
2022-08-23T06:59:50.054Z,18.20
2022-08-23T07:00:56.748Z,18.20
2022-08-23T07:02:02.218Z,18.30
2022-08-23T07:03:04.721Z,18.30
2022-08-23T07:04:08.626Z,18.40
2022-08-23T07:05:10.608Z,18.50
2022-08-23T07:06:12.383Z,18.50
2022-08-23T07:07:14.975Z,18.50
2022-08-23T07:08:16.647Z,18.60
2022-08-23T07:09:18.780Z,18.70
2022-08-23T07:10:20.557Z,18.70
2022-08-23T07:11:23.221Z,18.80
2022-08-23T07:12:24.902Z,18.90
2022-08-23T07:13:28.043Z,18.90
2022-08-23T07:14:30.036Z,19.00
2022-08-23T07:15:31.719Z,19.10
2022-08-23T07:16:48.011Z,19.10
2022-08-23T07:17:49.699Z,19.30
2022-08-23T07:18:52.949Z,19.20
2022-08-23T07:19:55.035Z,19.30
2022-08-23T07:21:02.877Z,19.30
2022-08-23T07:22:05.879Z,19.40
2022-08-23T07:23:07.614Z,19.40
2022-08-23T07:24:10.080Z,19.40
2022-08-23T07:25:11.822Z,19.50
2022-08-23T07:26:15.716Z,19.50
2022-08-23T07:27:17.566Z,19.60
2022-08-23T07:28:19.709Z,19.60
2022-08-23T07:29:22.857Z,19.60
2022-08-23T07:30:25.217Z,19.60
2022-08-23T07:31:53.456Z,19.70
2022-08-23T07:32:55.259Z,19.80
2022-08-23T07:34:01.039Z,19.80
2022-08-23T07:35:02.810Z,19.90
2022-08-23T07:36:05.794Z,20.00
2022-08-23T07:37:15.322Z,20.00
2022-08-23T07:38:18.301Z,20.00
2022-08-23T07:39:22.167Z,20.10
2022-08-23T07:40:23.899Z,20.20
2022-08-23T07:41:32.897Z,20.20
2022-08-23T07:42:34.834Z,20.30
2022-08-23T07:43:37.420Z,20.30
2022-08-23T07:44:40.003Z,20.40
2022-08-23T07:45:43.260Z,20.40
2022-08-23T07:46:46.568Z,20.40
2022-08-23T07:47:50.652Z,20.50
2022-08-23T07:48:54.574Z,20.60
2022-08-23T07:49:56.814Z,20.60
2022-08-23T07:51:02.179Z,20.70
2022-08-23T07:52:04.345Z,20.70
2022-08-23T07:53:06.700Z,20.80
2022-08-23T07:54:10.952Z,20.80
2022-08-23T07:55:12.821Z,20.90
2022-08-23T07:56:16.999Z,21.00
2022-08-23T07:57:18.963Z,21.00
2022-08-23T07:58:22.120Z,21.10
2022-08-23T07:59:23.872Z,21.20
2022-08-23T08:00:25.917Z,21.30
2022-08-23T08:01:29.713Z,21.30
2022-08-23T08:02:31.557Z,21.50
2022-08-23T08:03:33.334Z,21.50
2022-08-23T08:04:35.027Z,21.60
2022-08-23T08:05:36.894Z,21.70
2022-08-23T08:06:41.068Z,21.70
2022-08-23T08:07:43.499Z,21.80
2022-08-23T08:08:46.206Z,21.80
2022-08-23T08:09:48.039Z,21.90
2022-08-23T08:10:54.672Z,22.00
2022-08-23T08:11:56.425Z,22.00
2022-08-23T08:12:58.187Z,22.10
2022-08-23T08:14:02.021Z,22.10
2022-08-23T08:15:04.923Z,22.20
2022-08-23T08:16:08.671Z,22.30
2022-08-23T08:17:10.702Z,22.40
2022-08-23T08:18:12.522Z,22.50
2022-08-23T08:19:15.920Z,22.50
2022-08-23T08:20:21.845Z,22.60
2022-08-23T08:21:23.693Z,22.70
2022-08-23T08:22:25.398Z,22.70
2022-08-23T08:23:29.277Z,22.80
2022-08-23T08:24:30.974Z,22.90
2022-08-23T08:25:34.256Z,23.00
2022-08-23T08:26:36.563Z,23.10
2022-08-23T08:27:38.706Z,23.20
2022-08-23T08:28:40.767Z,23.30
2022-08-23T08:29:43.856Z,23.50
2022-08-23T08:30:45.570Z,23.60
2022-08-23T08:31:51.284Z,23.60
2022-08-23T08:32:55.408Z,23.60
2022-08-23T08:33:57.312Z,23.70
2022-08-23T08:34:59.008Z,23.70
2022-08-23T08:36:04.314Z,23.80
2022-08-23T08:37:07.554Z,23.80
2022-08-23T08:38:10.975Z,24.00
2022-08-23T08:39:16.741Z,24.00
2022-08-23T08:40:29.815Z,24.10
2022-08-23T08:42:07.736Z,24.20
2022-08-23T08:43:34.888Z,24.30
2022-08-23T08:44:58.666Z,24.40
2022-08-23T08:46:18.580Z,24.50
2022-08-23T08:47:27.873Z,24.60
2022-08-23T08:48:34.984Z,24.60
2022-08-23T08:49:55.326Z,24.70
2022-08-23T08:51:03.698Z,24.80
2022-08-23T08:52:08.562Z,24.80
2022-08-23T08:53:16.203Z,24.90
2022-08-23T08:54:22.657Z,24.90
2022-08-23T08:55:28.691Z,25.00
2022-08-23T08:56:34.134Z,25.10
2022-08-23T08:57:43.413Z,25.10
2022-08-23T08:58:59.486Z,25.10
2022-08-23T09:00:29.410Z,25.20
2022-08-23T09:01:34.829Z,25.20
2022-08-23T09:02:37.732Z,25.30
2022-08-23T09:03:40.423Z,25.30
2022-08-23T09:04:46.003Z,25.40
2022-08-23T09:06:23.054Z,25.50
2022-08-23T09:07:45.968Z,25.60
2022-08-23T09:09:02.758Z,25.70
2022-08-23T09:10:36.018Z,25.80
2022-08-23T09:12:01.324Z,25.90
2022-08-23T09:13:21.439Z,26.00
2022-08-23T09:14:55.032Z,26.10
2022-08-23T09:16:15.925Z,26.20
2022-08-23T09:17:40.714Z,26.20
2022-08-23T09:18:42.559Z,26.30
2022-08-23T09:19:46.882Z,26.30
2022-08-23T09:20:52.288Z,26.30
2022-08-23T09:22:13.354Z,26.40
2022-08-23T09:23:23.027Z,26.50
2022-08-23T09:24:25.271Z,26.60
2022-08-23T09:25:27.071Z,26.60
2022-08-23T09:26:30.761Z,26.60
2022-08-23T09:27:33.344Z,26.70
2022-08-23T09:28:36.745Z,26.70
2022-08-23T09:29:50.710Z,26.70
2022-08-23T09:30:55.961Z,26.70
2022-08-23T09:32:03.809Z,26.80
2022-08-23T09:33:17.653Z,26.90
2022-08-23T09:34:37.026Z,26.90
2022-08-23T09:35:38.806Z,27.00
2022-08-23T09:36:40.722Z,27.10
2022-08-23T09:37:59.335Z,27.10
2022-08-23T09:39:02.942Z,27.20
2022-08-23T09:40:25.550Z,27.20
2022-08-23T09:41:40.113Z,27.20
2022-08-23T09:42:43.270Z,27.20
2022-08-23T09:43:48.306Z,27.30
2022-08-23T09:44:50.018Z,27.30
2022-08-23T09:45:51.686Z,27.30
2022-08-23T09:47:08.945Z,27.30
2022-08-23T09:48:15.179Z,27.40
2022-08-23T09:49:30.001Z,27.50
2022-08-23T09:50:38.977Z,27.50
2022-08-23T09:51:42.847Z,27.50
2022-08-23T09:52:48.255Z,27.60
2022-08-23T09:54:08.123Z,27.60
2022-08-23T09:55:25.080Z,27.60
2022-08-23T09:56:27.620Z,27.70
2022-08-23T09:57:31.748Z,27.70
2022-08-23T09:58:41.929Z,27.70
2022-08-23T09:59:51.674Z,27.70
2022-08-23T10:01:18.271Z,27.80
2022-08-23T10:02:27.549Z,27.80
2022-08-23T10:03:29.989Z,27.90
2022-08-23T10:04:37.680Z,27.90
2022-08-23T10:05:41.237Z,28.00
2022-08-23T10:06:46.207Z,28.10
2022-08-23T10:08:00.478Z,28.10
2022-08-23T10:09:04.992Z,28.10
2022-08-23T10:10:31.074Z,28.10
2022-08-23T10:11:39.744Z,28.20
2022-08-23T10:12:41.889Z,28.20
2022-08-23T10:13:44.619Z,28.30
2022-08-23T10:14:46.758Z,28.40
2022-08-23T10:15:52.190Z,28.50
2022-08-23T10:16:59.946Z,28.50
2022-08-23T10:18:16.490Z,28.40
2022-08-23T10:19:27.316Z,28.30
2022-08-23T10:20:52.219Z,28.30
2022-08-23T10:22:19.314Z,28.20
2022-08-23T10:23:43.218Z,28.20
2022-08-23T10:24:46.474Z,28.20
2022-08-23T10:26:01.689Z,28.20
2022-08-23T10:28:02.603Z,28.20
2022-08-23T10:29:37.085Z,28.20
2022-08-23T10:31:02.164Z,28.20
2022-08-23T10:32:14.577Z,28.20
2022-08-23T10:33:23.131Z,28.40
2022-08-23T10:34:39.299Z,28.50
2022-08-23T10:35:49.498Z,28.60
2022-08-23T10:37:03.296Z,28.70
2022-08-23T10:38:33.042Z,28.80
2022-08-23T10:39:46.133Z,28.90
2022-08-23T10:41:32.985Z,29.00
2022-08-23T10:42:48.881Z,29.20
2022-08-23T10:44:12.145Z,29.40
2022-08-23T10:45:20.911Z,29.50
2022-08-23T10:46:23.675Z,29.50
2022-08-23T10:47:38.116Z,29.60
2022-08-23T10:48:53.868Z,29.60
2022-08-23T10:49:58.297Z,29.50
2022-08-23T10:51:03.811Z,29.50
2022-08-23T10:52:09.632Z,29.60
2022-08-23T10:53:17.780Z,29.60
2022-08-23T10:54:35.751Z,29.60
2022-08-23T10:55:54.845Z,29.70
2022-08-23T10:56:57.815Z,29.80
2022-08-23T10:57:59.872Z,29.90
2022-08-23T10:59:10.910Z,29.80
2022-08-23T11:00:22.928Z,30.00
2022-08-23T11:01:46.637Z,30.10
2022-08-23T11:03:28.774Z,30.40
2022-08-23T11:05:03.265Z,30.60
2022-08-23T11:06:35.807Z,30.70
2022-08-23T11:07:43.409Z,30.90
2022-08-23T11:08:47.971Z,31.00
2022-08-23T11:10:17.284Z,31.00
2022-08-23T11:11:42.305Z,31.10
2022-08-23T11:13:00.114Z,31.20
2022-08-23T11:14:04.098Z,31.30
2022-08-23T11:15:19.270Z,31.40
2022-08-23T11:16:31.127Z,31.50
2022-08-23T11:17:51.009Z,31.40
2022-08-23T11:18:52.798Z,31.30
2022-08-23T11:19:58.858Z,31.40
2022-08-23T11:21:06.369Z,31.40
2022-08-23T11:22:18.729Z,31.40
2022-08-23T11:23:38.515Z,31.40
2022-08-23T11:25:01.006Z,31.40
2022-08-23T11:26:05.491Z,31.60
2022-08-23T11:27:07.714Z,31.70
2022-08-23T11:28:30.457Z,31.70
2022-08-23T11:29:34.316Z,31.70
2022-08-23T11:30:36.039Z,31.80
2022-08-23T11:32:18.841Z,31.80
2022-08-23T11:33:26.342Z,31.90
2022-08-23T11:34:43.559Z,31.90
2022-08-23T11:35:52.993Z,32.00
2022-08-23T11:37:19.592Z,32.10
2022-08-23T11:38:43.351Z,32.30
2022-08-23T11:40:04.290Z,32.50
2022-08-23T11:41:30.084Z,32.50
2022-08-23T11:42:38.133Z,32.50
2022-08-23T11:43:42.136Z,32.60
2022-08-23T11:44:48.828Z,32.60
2022-08-23T11:45:50.777Z,32.70
2022-08-23T11:46:59.549Z,32.80
2022-08-23T11:48:29.432Z,32.90
2022-08-23T11:49:37.380Z,33.00
2022-08-23T11:50:57.414Z,33.10
2022-08-23T11:52:23.952Z,32.90
2022-08-23T11:53:47.700Z,32.80
2022-08-23T11:55:14.465Z,32.80
2022-08-23T11:56:28.350Z,32.80
2022-08-23T11:57:50.659Z,32.90
2022-08-23T11:59:23.888Z,32.90
2022-08-23T12:00:50.354Z,32.90
2022-08-23T12:01:52.362Z,33.00
2022-08-23T12:03:06.572Z,33.00
2022-08-23T12:04:14.615Z,33.00
2022-08-23T12:05:22.564Z,33.00
2022-08-23T12:06:40.860Z,33.00
2022-08-23T12:07:52.039Z,33.00
2022-08-23T12:09:01.687Z,33.00
2022-08-23T12:10:04.867Z,33.00
2022-08-23T12:11:10.452Z,32.90
2022-08-23T12:12:38.701Z,32.90
2022-08-23T12:13:58.547Z,33.10
2022-08-23T12:15:04.412Z,33.30
2022-08-23T12:16:14.786Z,33.30
2022-08-23T12:17:20.258Z,33.30
2022-08-23T12:18:26.727Z,33.20
2022-08-23T12:19:40.536Z,33.20
2022-08-23T12:20:48.535Z,33.20
2022-08-23T12:21:52.270Z,33.20
2022-08-23T12:22:59.800Z,33.20
2022-08-23T12:24:24.235Z,33.30
2022-08-23T12:25:26.090Z,33.30
2022-08-23T12:26:40.671Z,33.40
2022-08-23T12:27:52.391Z,33.40
2022-08-23T12:29:09.277Z,33.40
2022-08-23T12:30:17.851Z,33.50
2022-08-23T12:31:33.866Z,33.70
2022-08-23T12:32:44.400Z,33.80
2022-08-23T12:34:17.063Z,33.90
2022-08-23T12:35:28.646Z,34.00
2022-08-23T12:36:35.145Z,34.10
2022-08-23T12:37:54.895Z,33.90
2022-08-23T12:38:56.587Z,33.70
2022-08-23T12:40:02.237Z,33.80
2022-08-23T12:41:21.307Z,33.70
2022-08-23T12:42:35.449Z,33.50
2022-08-23T12:43:37.125Z,33.50
2022-08-23T12:44:39.110Z,33.40
2022-08-23T12:45:43.328Z,33.20
2022-08-23T12:46:47.448Z,33.20
2022-08-23T12:48:01.258Z,33.20
2022-08-23T12:49:05.433Z,33.30
2022-08-23T12:50:10.411Z,33.40
2022-08-23T12:51:13.046Z,33.30
2022-08-23T12:52:14.941Z,33.40
2022-08-23T12:53:26.590Z,33.50
2022-08-23T12:54:57.769Z,33.60
2022-08-23T12:56:06.822Z,33.70
2022-08-23T12:57:13.885Z,33.80
2022-08-23T12:58:26.935Z,33.90
2022-08-23T12:59:43.381Z,33.90
2022-08-23T13:00:57.550Z,34.00
2022-08-23T13:02:02.084Z,33.90
2022-08-23T13:03:15.861Z,33.90
2022-08-23T13:04:17.967Z,33.90
2022-08-23T13:05:43.987Z,33.90
2022-08-23T13:06:51.262Z,33.90
2022-08-23T13:07:53.769Z,33.90
2022-08-23T13:09:22.268Z,34.00
2022-08-23T13:10:24.922Z,33.90
2022-08-23T13:11:30.496Z,33.80
2022-08-23T13:12:32.255Z,33.80
2022-08-23T13:13:34.651Z,33.80
2022-08-23T13:14:39.798Z,33.90
2022-08-23T13:15:58.331Z,33.90
2022-08-23T13:17:18.524Z,33.90
2022-08-23T13:18:25.186Z,34.00
2022-08-23T13:19:31.259Z,34.10
2022-08-23T13:20:33.156Z,34.20
2022-08-23T13:21:39.862Z,34.20
2022-08-23T13:23:04.638Z,34.40
2022-08-23T13:24:38.765Z,34.40
2022-08-23T13:25:41.904Z,34.50
2022-08-23T13:26:44.737Z,34.40
2022-08-23T13:27:46.410Z,34.30
2022-08-23T13:29:03.454Z,34.10
2022-08-23T13:30:11.460Z,34.00
2022-08-23T13:31:13.212Z,33.90
2022-08-23T13:32:37.543Z,34.00
2022-08-23T13:33:41.029Z,34.10
2022-08-23T13:34:47.150Z,34.30
2022-08-23T13:36:05.250Z,34.30
2022-08-23T13:37:30.365Z,34.50
2022-08-23T13:38:33.101Z,34.70
2022-08-23T13:39:35.323Z,34.90
2022-08-23T13:40:41.827Z,34.90
2022-08-23T13:41:43.928Z,35.00
2022-08-23T13:42:52.651Z,35.10
2022-08-23T13:43:55.065Z,35.20
2022-08-23T13:44:56.947Z,35.40
2022-08-23T13:46:59.538Z,35.40
2022-08-23T13:48:22.776Z,35.50
2022-08-23T13:49:28.432Z,35.50
2022-08-23T13:50:36.004Z,35.40
2022-08-23T13:51:45.718Z,35.40
2022-08-23T13:53:11.580Z,35.30
2022-08-23T13:54:15.212Z,35.10
2022-08-23T13:55:17.190Z,35.10
2022-08-23T13:56:19.459Z,35.10
2022-08-23T13:57:22.314Z,35.10
2022-08-23T13:58:29.666Z,35.00
2022-08-23T13:59:34.234Z,35.00
2022-08-23T14:00:36.507Z,34.90
2022-08-23T14:01:38.569Z,34.80
2022-08-23T14:02:40.654Z,34.70
2022-08-23T14:03:42.433Z,34.60
2022-08-23T14:04:44.570Z,34.60
2022-08-23T14:05:46.498Z,34.50
2022-08-23T14:06:49.048Z,34.40
2022-08-23T14:07:52.990Z,34.30
2022-08-23T14:08:55.073Z,34.20
2022-08-23T14:09:57.566Z,34.10
2022-08-23T14:10:59.385Z,34.10
2022-08-23T14:12:04.639Z,34.10
2022-08-23T14:13:08.138Z,34.10
2022-08-23T14:14:11.981Z,34.10
2022-08-23T14:15:14.815Z,34.00
2022-08-23T14:16:40.688Z,33.90
2022-08-23T14:17:46.711Z,33.80
2022-08-23T14:21:34.608Z,33.40
2022-08-23T14:22:36.346Z,33.40
2022-08-23T14:23:38.178Z,33.20
2022-08-23T14:24:40.678Z,33.20
2022-08-23T14:25:42.636Z,33.20